Time;durP1;ratioP1;P1;durP2;ratioP2;P2;SDS_P1;SDS_P2;PMS_P1;PMS_P2;Temp;Humidity;BMP_temperature;BMP_pressure;BME280_temperature;BME280_humidity;BME280_pressure;Samples;Min_cycle;Max_cycle;Signal;HPM_P1;HPM_P2
2024/02/12 00:04:18;;;;;;;16.20;11.30;;;;;;;11.09;77.47;97059.25;232334;204;151983;-61
2024/02/12 00:09:22;;;;;;;;;;;;;;;11.09;77.44;97065.48;232386;203;137751;-63
2024/02/12 00:14:25;;;;;;;13.30;9.60;;;;;;;11.07;77.12;97066.24;232482;200;135942;-62
2024/02/12 00:19:29;;;;;;;13.00;7.80;;;;;;;10.98;76.98;97069.22;232339;200;151895;-63
2024/02/12 00:24:33;;;;;;;8.80;6.20;;;;;;;10.95;76.93;97078.23;232330;200;138633;-61
2024/02/12 00:29:37;;;;;;;10.50;6.30;;;;;;;10.98;76.79;97085.90;232329;201;140336;-66
2024/02/12 00:34:40;;;;;;;7.40;4.90;;;;;;;10.99;76.17;97089.77;232399;203;152068;-61
2024/02/12 00:39:43;;;;;;;4.60;3.40;;;;;;;10.92;75.83;97096.76;232441;200;138112;-62
2024/02/12 00:44:46;;;;;;;3.30;2.60;;;;;;;10.88;75.54;97101.78;232340;203;137498;-62
2024/02/12 00:49:50;;;;;;;2.50;2.00;;;;;;;10.82;75.38;97103.73;232429;204;151063;-62
2024/02/12 00:54:53;;;;;;;3.30;1.70;;;;;;;10.77;74.81;97108.82;232350;203;138104;-61
2024/02/12 00:59:57;;;;;;;1.90;1.50;;;;;;;10.67;74.72;97112.81;232403;203;140705;-60
2024/02/12 01:05:00;;;;;;;2.10;1.40;;;;;;;10.64;74.61;97116.60;232395;203;151514;-60
2024/02/12 01:10:04;;;;;;;2.60;1.20;;;;;;;10.67;74.33;97116.54;232563;203;137439;-61
2024/02/12 01:15:09;;;;;;;2.40;1.30;;;;;;;10.71;73.80;97114.59;232463;201;137212;-61
2024/02/12 01:20:14;;;;;;;1.70;1.30;;;;;;;10.64;73.57;97113.36;232400;204;152272;-61
2024/02/12 01:25:18;;;;;;;1.40;1.10;;;;;;;10.60;73.41;97116.44;232431;197;137796;-61
2024/02/12 01:30:22;;;;;;;1.50;1.30;;;;;;;10.54;73.42;97117.70;232283;203;137260;-61
2024/02/12 01:35:25;;;;;;;1.50;1.30;;;;;;;10.50;73.26;97124.66;232234;203;150875;-61
2024/02/12 01:40:28;;;;;;;2.60;1.40;;;;;;;10.40;73.15;97131.75;232379;202;138769;-61
2024/02/12 01:45:33;;;;;;;2.40;1.30;;;;;;;10.33;73.31;97134.38;232516;200;138708;-62
2024/02/12 01:50:38;;;;;;;1.60;1.20;;;;;;;10.35;73.22;97133.81;232412;204;151733;-59
2024/02/12 01:55:43;;;;;;;2.30;1.30;;;;;;;10.31;72.86;97133.69;232353;204;136649;-58
2024/02/12 02:00:48;;;;;;;1.60;1.20;;;;;;;10.28;72.74;97139.27;232452;196;138781;-59
2024/02/12 02:05:52;;;;;;;1.90;1.10;;;;;;;10.18;72.65;97134.40;232281;201;151837;-58
2024/02/12 02:10:57;;;;;;;1.70;0.90;;;;;;;10.13;72.71;97137.91;232302;203;139132;-58
2024/02/12 02:16:01;;;;;;;1.10;1.00;;;;;;;10.10;72.60;97138.95;232601;197;138137;-60
2024/02/12 02:21:06;;;;;;;1.20;0.90;;;;;;;10.14;72.72;97140.80;232335;203;151971;-60
2024/02/12 02:26:09;;;;;;;2.20;0.90;;;;;;;10.26;72.43;97142.30;232364;196;140467;-61
2024/02/12 02:31:12;;;;;;;1.30;0.90;;;;;;;10.35;71.94;97138.77;232426;203;137344;-61
2024/02/12 02:36:16;;;;;;;1.20;1.00;;;;;;;10.35;71.38;97139.16;232411;204;152029;-59
2024/02/12 02:41:21;;;;;;;1.00;0.90;;;;;;;10.33;71.13;97141.10;232416;203;136999;-57
2024/02/12 02:46:27;;;;;;;1.70;0.90;;;;;;;10.29;71.14;97144.83;232390;204;138062;-60
2024/02/12 02:51:30;;;;;;;1.10;0.80;;;;;;;10.30;70.99;97150.23;232561;207;152197;-59
2024/02/12 02:56:34;;;;;;;3.00;1.20;;;;;;;10.30;71.03;97154.85;232390;204;138126;-61
2024/02/12 03:01:38;;;;;;;1.30;0.90;;;;;;;10.28;71.07;97157.83;232357;201;138533;-62
2024/02/12 03:06:41;;;;;;;2.20;1.00;;;;;;;10.27;71.21;97166.84;232429;204;151027;-61
2024/02/12 03:11:45;;;;;;;1.30;0.80;;;;;;;10.31;70.99;97173.73;232398;197;137956;-61
2024/02/12 03:16:55;;;;;;;1.40;1.10;;;;;;;10.37;70.94;97178.45;232422;204;136909;-63
2024/02/12 03:21:58;;;;;;;1.10;0.90;;;;;;;10.41;70.90;97177.63;232373;204;151558;-62
2024/02/12 03:27:03;;;;;;;1.50;1.00;;;;;;;10.42;70.85;97181.40;232386;199;136990;-62
2024/02/12 03:32:06;;;;;;;1.80;0.90;;;;;;;10.46;70.79;97192.36;232389;201;140322;-62
2024/02/12 03:37:09;;;;;;;2.10;0.90;;;;;;;10.45;70.63;97194.45;232422;204;151814;-62
2024/02/12 03:42:12;;;;;;;1.90;1.10;;;;;;;10.41;70.56;97199.23;232020;204;137332;-61
2024/02/12 03:47:18;;;;;;;2.90;1.30;;;;;;;10.39;70.66;97203.52;231668;204;136874;-62
2024/02/12 04:03:08;;;;;;;2.00;1.20;;;;;;;10.40;70.83;97215.25;232220;201;137530;-61
2024/02/12 04:08:11;;;;;;;2.20;1.20;;;;;;;10.42;70.89;97213.98;232316;197;152137;-62
2024/02/12 04:13:14;;;;;;;2.00;1.50;;;;;;;10.47;70.82;97218.92;232343;201;137438;-60
2024/02/12 04:18:19;;;;;;;1.50;1.30;;;;;;;10.50;70.77;97221.58;232361;203;140390;-59
2024/02/12 04:23:23;;;;;;;2.70;1.20;;;;;;;10.57;70.52;97222.09;232360;197;153531;-59
2024/02/12 04:28:27;;;;;;;1.80;1.20;;;;;;;10.60;70.21;97225.89;232404;196;138064;-59
2024/02/12 04:33:32;;;;;;;1.70;0.90;;;;;;;10.62;69.82;97233.45;232499;204;136896;-60
2024/02/12 04:38:36;;;;;;;1.40;0.90;;;;;;;10.65;69.48;97230.58;231963;204;152035;-61
2024/02/12 04:43:40;;;;;;;1.20;0.80;;;;;;;10.61;69.08;97226.63;232362;200;137642;-61
2024/02/12 04:48:43;;;;;;;1.30;0.80;;;;;;;10.53;69.09;97225.27;232337;204;138200;-60
2024/02/12 04:53:46;;;;;;;1.90;0.90;;;;;;;10.59;68.92;97228.08;232392;203;151538;-61
2024/02/12 04:58:49;;;;;;;1.90;0.90;;;;;;;10.62;68.48;97229.77;232379;203;137488;-60
2024/02/12 05:03:53;;;;;;;2.20;1.10;;;;;;;10.66;68.42;97238.13;232431;204;136862;-60
2024/02/12 05:08:57;;;;;;;2.10;0.90;;;;;;;10.71;68.21;97240.85;232299;201;151932;-60
2024/02/12 05:14:05;;;;;;;1.50;1.00;;;;;;;10.71;68.07;97249.86;232248;197;136636;-60
2024/02/12 05:24:29;;;;;;;1.60;1.00;;;;;;;10.70;67.79;97254.09;232369;203;152273;-61
2024/02/12 05:29:32;;;;;;;2.00;1.20;;;;;;;10.66;67.82;97258.30;232301;200;137473;-60
2024/02/12 05:34:36;;;;;;;1.00;0.80;;;;;;;10.62;67.80;97265.36;232388;203;136535;-61
2024/02/12 05:39:40;;;;;;;81.30;61.30;;;;;;;10.58;68.13;97263.98;232518;203;151866;-61
2024/02/12 05:44:43;;;;;;;1.90;1.50;;;;;;;10.58;68.20;97270.05;232413;200;137838;-63
2024/02/12 05:49:46;;;;;;;155.00;133.40;;;;;;;10.61;67.95;97267.44;232325;200;137677;-63
2024/02/12 05:54:49;;;;;;;3.80;2.10;;;;;;;10.71;67.93;97267.95;232388;204;153452;-63
2024/02/12 05:59:53;;;;;;;48.80;41.10;;;;;;;10.75;67.66;97272.77;232341;204;138623;-61
2024/02/12 06:04:56;;;;;;;8.40;5.50;;;;;;;10.77;67.58;97283.42;232440;203;138036;-62
2024/02/12 06:09:59;;;;;;;3.00;1.50;;;;;;;10.77;67.54;97287.48;232508;200;152817;-62
2024/02/12 06:15:03;;;;;;;15.50;13.10;;;;;;;10.73;67.50;97294.87;232209;204;138417;-62
2024/02/12 06:20:07;;;;;;;2.90;2.00;;;;;;;10.75;67.71;97304.14;232216;197;138155;-62
2024/02/12 06:25:12;;;;;;;1.50;1.40;;;;;;;10.78;67.63;97315.37;232130;197;151467;-61
2024/02/12 06:30:16;;;;;;;3.60;1.30;;;;;;;10.73;67.34;97319.95;232386;196;138855;-58
2024/02/12 06:35:19;;;;;;;2.80;1.50;;;;;;;10.68;67.31;97325.53;232354;201;137672;-59
2024/02/12 06:40:22;;;;;;;1.60;1.30;;;;;;;10.67;67.38;97327.05;231976;204;151450;-59
2024/02/12 06:45:25;;;;;;;166.40;135.20;;;;;;;10.68;67.56;97327.13;232500;203;137345;-59
2024/02/12 06:50:28;;;;;;;4.20;3.00;;;;;;;10.77;67.59;97330.55;232370;204;139489;-59
2024/02/12 06:55:32;;;;;;;2.10;1.50;;;;;;;10.80;67.20;97333.44;232393;203;151133;-58
2024/02/12 07:00:37;;;;;;;3.70;1.70;;;;;;;10.84;66.92;97338.27;232155;204;137670;-58
2024/02/12 07:05:40;;;;;;;3.70;1.90;;;;;;;10.92;66.67;97338.23;232400;204;137448;-58
2024/02/12 07:10:44;;;;;;;2.70;1.70;;;;;;;10.94;66.65;97342.02;232314;201;151513;-57
2024/02/12 07:15:48;;;;;;;3.50;1.90;;;;;;;11.03;66.44;97348.27;232469;200;136829;-57
2024/02/12 07:20:51;;;;;;;3.50;2.10;;;;;;;11.13;66.12;97342.89;232339;200;138113;-57
2024/02/12 07:25:54;;;;;;;2.20;1.60;;;;;;;11.21;65.95;97350.12;232348;203;152490;-57
2024/02/12 07:30:57;;;;;;;3.90;1.90;;;;;;;11.22;65.56;97353.77;232297;204;137552;-57
2024/02/12 07:36:03;;;;;;;2.80;1.70;;;;;;;11.24;65.37;97360.55;232296;204;140232;-56
2024/02/12 07:41:06;;;;;;;3.00;2.00;;;;;;;11.24;64.93;97362.84;231729;204;151142;-57
2024/02/12 07:46:11;;;;;;;3.40;1.90;;;;;;;11.23;65.01;97371.05;232391;204;137741;-58
2024/02/12 07:51:18;;;;;;;3.00;1.80;;;;;;;11.26;65.13;97379.49;232521;204;138269;-57
2024/02/12 07:56:23;;;;;;;3.10;2.20;;;;;;;11.27;64.83;97382.80;232302;203;151246;-58
2024/02/12 08:01:27;;;;;;;7.80;3.00;;;;;;;11.28;64.89;97386.27;231973;200;138671;-58
2024/02/12 08:06:30;;;;;;;12.20;6.80;;;;;;;11.27;64.57;97389.86;232285;201;137327;-58
2024/02/12 08:11:35;;;;;;;5.60;3.10;;;;;;;11.33;64.61;97393.09;232250;204;152049;-58
2024/02/12 08:16:43;;;;;;;5.30;2.20;;;;;;;11.30;64.28;97399.73;232331;200;140293;-58
2024/02/12 08:21:47;;;;;;;4.40;2.50;;;;;;;11.29;64.24;97398.08;232389;203;137444;-58
2024/02/12 08:26:50;;;;;;;5.70;2.80;;;;;;;11.28;64.30;97403.84;232210;203;151626;-58
2024/02/12 08:31:53;;;;;;;10.10;7.00;;;;;;;11.33;64.52;97404.91;232248;200;137879;-58
2024/02/12 08:36:57;;;;;;;4.40;2.90;;;;;;;11.42;64.71;97409.66;232324;201;136712;-57
2024/02/12 08:42:01;;;;;;;4.40;2.50;;;;;;;11.44;64.04;97416.39;232105;201;151641;-58
2024/02/12 08:47:04;;;;;;;5.60;2.50;;;;;;;11.44;63.82;97422.65;232258;203;137297;-57
2024/02/12 08:52:08;;;;;;;6.50;2.70;;;;;;;11.55;63.76;97418.04;232457;200;140411;-58
2024/02/12 08:57:14;;;;;;;4.70;2.50;;;;;;;11.66;63.38;97425.61;232354;203;152014;-57
2024/02/12 09:02:18;;;;;;;4.00;2.40;;;;;;;11.66;62.74;97428.63;232133;204;137400;-57
2024/02/12 09:07:21;;;;;;;4.40;2.60;;;;;;;11.61;62.71;97435.59;232117;201;137407;-57
2024/02/12 09:12:26;;;;;;;3.60;2.30;;;;;;;11.58;63.05;97439.96;232320;200;151323;-58
2024/02/12 09:17:39;;;;;;;5.10;2.40;;;;;;;11.60;62.84;97447.58;232241;203;136630;-58
2024/02/12 09:22:43;;;;;;;3.60;2.40;;;;;;;11.58;62.90;97449.89;232312;203;138588;-56
2024/02/12 09:27:46;;;;;;;4.00;2.30;;;;;;;11.51;62.91;97455.48;232336;203;152976;-58
2024/02/12 09:32:51;;;;;;;5.30;2.20;;;;;;;11.41;62.72;97463.18;232318;204;140196;-56
2024/02/12 09:37:55;;;;;;;4.40;2.40;;;;;;;11.36;63.32;97465.57;232305;201;138072;-57
2024/02/12 09:43:01;;;;;;;4.80;2.40;;;;;;;11.44;63.50;97475.92;232196;204;152218;-57
2024/02/12 09:48:07;;;;;;;9.10;4.90;;;;;;;11.50;63.42;97483.15;231790;200;137715;-58
2024/02/12 09:53:20;;;;;;;5.50;3.10;;;;;;;11.42;63.14;97482.79;232302;204;136967;-57
2024/02/12 09:58:23;;;;;;;4.30;2.20;;;;;;;11.28;63.31;97492.97;232314;203;151214;-57
2024/02/12 10:03:28;;;;;;;3.80;2.20;;;;;;;11.20;63.50;97493.72;232466;203;136799;-60
2024/02/12 10:08:31;;;;;;;4.30;2.20;;;;;;;11.19;63.67;97494.86;232315;200;137873;-59
2024/02/12 10:13:35;;;;;;;3.90;2.40;;;;;;;11.24;63.99;97492.29;232049;201;151171;-59
2024/02/12 10:18:38;;;;;;;127.20;86.90;;;;;;;11.35;63.82;97491.21;232240;196;137458;-60
2024/02/12 10:23:41;;;;;;;10.40;5.80;;;;;;;11.41;63.60;97490.71;232257;201;138035;-59
2024/02/12 10:28:53;;;;;;;6.70;2.80;;;;;;;11.39;63.33;97497.87;232256;204;152111;-60
2024/02/12 10:34:02;;;;;;;5.10;2.50;;;;;;;11.38;63.38;97496.66;232346;198;136701;-60
2024/02/12 10:39:12;;;;;;;3.30;2.20;;;;;;;11.38;63.62;97494.55;232305;201;138622;-59
2024/02/12 10:44:19;;;;;;;4.30;2.60;;;;;;;11.42;63.61;97493.80;232328;203;151544;-59
2024/02/12 10:49:24;;;;;;;5.00;3.10;;;;;;;11.42;63.48;97489.59;232239;204;137503;-59
2024/02/12 10:54:27;;;;;;;4.70;2.50;;;;;;;11.41;63.54;97498.36;232471;203;136604;-59
2024/02/12 10:59:31;;;;;;;6.50;2.90;;;;;;;11.42;63.47;97494.17;232407;203;151875;-59
2024/02/12 11:04:37;;;;;;;4.90;2.50;;;;;;;11.47;63.64;97491.09;232404;200;138520;-58
2024/02/12 11:09:40;;;;;;;5.70;2.70;;;;;;;11.51;63.66;97490.19;232466;203;136702;-58
2024/02/12 11:14:45;;;;;;;5.00;2.70;;;;;;;11.58;63.46;97489.88;232444;204;151587;-59
2024/02/12 11:19:49;;;;;;;5.90;2.70;;;;;;;11.56;63.47;97486.48;232337;204;139520;-56
2024/02/12 11:24:59;;;;;;;4.80;2.70;;;;;;;11.60;63.66;97490.70;232317;200;136602;-57
2024/02/12 11:30:20;;;;;;;3.90;2.30;;;;;;;11.60;63.63;97497.98;232405;203;151852;-57
2024/02/12 11:35:23;;;;;;;4.40;2.50;;;;;;;11.59;63.33;97504.19;232333;200;136714;-57
2024/02/12 11:40:27;;;;;;;6.70;2.80;;;;;;;11.51;63.79;97498.83;232182;201;141465;-57
2024/02/12 11:45:31;;;;;;;7.20;3.20;;;;;;;11.49;64.19;97496.95;232445;196;151364;-55
2024/02/12 11:50:34;;;;;;;4.90;2.50;;;;;;;11.56;64.22;97500.17;232295;203;138330;-57
2024/02/12 11:55:39;;;;;;;7.20;3.50;;;;;;;11.66;64.04;97499.65;232283;201;138669;-57
2024/02/12 12:00:44;;;;;;;6.20;3.20;;;;;;;11.77;63.97;97503.23;232365;204;151405;-57
2024/02/12 12:05:50;;;;;;;5.60;3.10;;;;;;;11.90;63.78;97504.59;232274;203;139531;-57
2024/02/12 12:10:53;;;;;;;7.60;3.40;;;;;;;11.96;63.25;97506.86;232324;200;137549;-56
2024/02/12 12:15:57;;;;;;;6.50;3.10;;;;;;;11.99;63.30;97507.86;232408;203;153875;-57
2024/02/12 12:21:00;;;;;;;3.80;3.00;;;;;;;11.98;63.20;97509.39;232226;203;138122;-57
2024/02/12 12:26:04;;;;;;;8.80;3.40;;;;;;;11.92;63.41;97502.13;232326;200;136936;-57
2024/02/12 12:31:09;;;;;;;7.00;3.40;;;;;;;11.95;63.37;97501.41;232314;203;151456;-56
2024/02/12 12:36:12;;;;;;;10.10;3.20;;;;;;;12.00;63.05;97504.33;232365;196;137571;-57
2024/02/12 12:41:19;;;;;;;6.10;3.40;;;;;;;12.00;62.67;97508.40;232360;203;137613;-59
2024/02/12 12:46:23;;;;;;;8.20;3.10;;;;;;;11.99;62.71;97505.17;232165;203;152070;-59
2024/02/12 12:51:26;;;;;;;5.30;2.60;;;;;;;12.04;62.62;97503.95;232309;204;136625;-57
2024/02/12 12:56:29;;;;;;;4.90;2.40;;;;;;;12.00;62.30;97504.51;232283;204;138838;-59
2024/02/12 13:01:33;;;;;;;5.80;2.80;;;;;;;12.06;62.48;97502.02;232200;204;151554;-59
2024/02/12 13:06:42;;;;;;;5.90;2.80;;;;;;;12.09;62.29;97503.87;232300;203;137418;-59
2024/02/12 13:11:46;;;;;;;7.00;3.10;;;;;;;12.15;62.12;97506.38;232325;204;138119;-59
2024/02/12 13:16:50;;;;;;;4.80;2.40;;;;;;;12.18;61.83;97513.70;232262;204;152042;-59
2024/02/12 13:21:53;;;;;;;5.10;2.90;;;;;;;12.17;61.49;97514.73;232377;203;136931;-59
2024/02/12 13:26:58;;;;;;;5.60;3.00;;;;;;;12.15;61.53;97511.49;232041;202;136976;-58
2024/02/12 13:32:05;;;;;;;;;;;;;;;12.19;61.43;97514.86;232331;203;151261;-58
2024/02/12 13:37:11;;;;;;;;;;;;;;;12.26;61.72;97517.99;232380;200;237021;-58
2024/02/12 13:42:15;;;;;;;5.80;2.60;;;;;;;12.33;61.43;97528.55;232417;204;135942;-58
2024/02/12 13:47:20;;;;;;;4.10;2.50;;;;;;;12.37;60.89;97535.40;232220;204;151823;-62
2024/02/12 13:52:23;;;;;;;9.10;2.70;;;;;;;12.39;60.61;97544.08;231968;203;141516;-59
2024/02/12 13:57:27;;;;;;;9.90;2.80;;;;;;;12.42;60.32;97547.61;232342;203;137210;-59
2024/02/12 14:02:30;;;;;;;4.00;2.50;;;;;;;12.40;60.31;97551.84;232113;203;151558;-60
2024/02/12 14:07:34;;;;;;;5.80;2.70;;;;;;;12.39;60.50;97554.98;232260;204;136910;-59
2024/02/12 14:12:37;;;;;;;5.90;2.40;;;;;;;12.36;59.93;97558.67;232242;201;137131;-59
2024/02/12 14:17:43;;;;;;;8.00;2.60;;;;;;;12.32;60.07;97569.30;232315;204;151984;-59
2024/02/12 14:22:49;;;;;;;5.30;2.90;;;;;;;12.29;59.96;97573.13;232101;200;136609;-58
2024/02/12 14:27:54;;;;;;;7.00;2.90;;;;;;;12.26;60.38;97576.98;232315;201;136841;-60
2024/02/12 14:32:57;;;;;;;5.10;2.90;;;;;;;12.17;60.28;97585.27;232213;196;151827;-58
2024/02/12 14:38:01;;;;;;;5.70;2.90;;;;;;;12.10;60.60;97589.48;232192;200;137414;-57
2024/02/12 14:43:05;;;;;;;4.50;2.70;;;;;;;12.11;60.83;97593.47;232206;204;137751;-59
2024/02/12 14:48:08;;;;;;;4.60;2.90;;;;;;;12.12;60.88;97599.64;232324;204;152353;-58
2024/02/12 14:53:12;;;;;;;7.90;3.30;;;;;;;12.04;61.01;97613.27;232248;203;137714;-58
2024/02/12 14:58:15;;;;;;;9.40;3.50;;;;;;;12.04;61.09;97614.01;232350;200;137617;-59
2024/02/12 15:03:19;;;;;;;10.30;3.20;;;;;;;12.04;61.23;97614.38;232360;204;151356;-59
2024/02/12 15:08:23;;;;;;;6.70;3.50;;;;;;;12.05;61.19;97620.66;232292;203;140848;-57
2024/02/12 15:13:30;;;;;;;5.50;3.40;;;;;;;12.05;61.11;97631.81;232253;203;137110;-59
2024/02/12 15:18:35;;;;;;;7.10;3.70;;;;;;;11.95;61.25;97628.86;232282;201;153011;-57
2024/02/12 15:23:40;;;;;;;4.70;3.30;;;;;;;11.93;61.51;97632.67;232314;201;137186;-58
2024/02/12 15:28:43;;;;;;;6.30;3.20;;;;;;;11.91;61.54;97636.58;232166;201;137786;-58
2024/02/12 15:33:46;;;;;;;9.00;3.50;;;;;;;11.86;61.71;97642.14;232423;204;151428;-58
2024/02/12 15:38:50;;;;;;;9.40;3.60;;;;;;;11.85;61.91;97646.32;232330;201;139204;-57
2024/02/12 15:43:54;;;;;;;6.30;3.30;;;;;;;11.86;62.02;97646.27;232314;200;138107;-60
2024/02/12 15:48:58;;;;;;;14.00;3.60;;;;;;;11.85;62.08;97655.40;232237;204;151285;-58
2024/02/12 15:54:02;;;;;;;12.00;3.80;;;;;;;11.84;61.92;97660.08;232125;204;137888;-59
2024/02/12 15:59:05;;;;;;;10.20;4.10;;;;;;;11.83;61.93;97665.33;232290;203;136896;-59
2024/02/12 16:04:09;;;;;;;9.40;3.90;;;;;;;11.84;61.97;97668.72;232343;200;151295;-60
2024/02/12 16:09:13;;;;;;;8.50;4.40;;;;;;;11.82;62.10;97677.63;232230;201;138096;-59
2024/02/12 16:14:19;;;;;;;8.70;4.10;;;;;;;11.80;62.18;97687.23;232273;203;137726;-59
2024/02/12 16:19:22;;;;;;;;;;;;;;;11.77;62.33;97699.77;232267;203;152566;-59
2024/02/12 16:24:26;;;;;;;14.60;4.60;;;;;;;11.75;62.45;97707.20;232396;203;135324;-59
2024/02/12 16:29:32;;;;;;;7.80;4.50;;;;;;;11.73;62.41;97713.95;232306;196;137515;-59
2024/02/12 16:34:36;;;;;;;12.00;5.30;;;;;;;11.73;62.52;97720.94;232333;204;151133;-59
2024/02/12 16:39:40;;;;;;;10.50;5.00;;;;;;;11.73;62.61;97725.57;232366;200;137193;-59
2024/02/12 16:44:43;;;;;;;9.40;5.00;;;;;;;11.73;62.71;97731.21;232314;200;138976;-59
2024/02/12 16:49:48;;;;;;;10.20;5.10;;;;;;;11.77;62.69;97735.15;232299;203;151732;-58
2024/02/12 16:54:51;;;;;;;8.90;4.70;;;;;;;11.76;62.81;97742.30;232290;203;140624;-58
2024/02/12 16:59:54;;;;;;;11.40;5.80;;;;;;;11.76;62.86;97748.55;232296;204;138014;-59
2024/02/12 17:04:58;;;;;;;10.80;5.20;;;;;;;11.76;62.77;97752.10;232273;196;151364;-60
2024/02/12 17:10:02;;;;;;;15.40;6.40;;;;;;;11.73;62.77;97754.80;232309;203;138228;-59
2024/02/12 17:15:09;;;;;;;8.20;5.40;;;;;;;11.67;62.91;97766.09;232249;203;136979;-58
2024/02/12 17:20:16;;;;;;;17.70;5.80;;;;;;;11.63;62.76;97770.48;232241;203;151332;-59
2024/02/12 17:25:20;;;;;;;11.40;5.80;;;;;;;11.57;62.72;97775.61;232221;201;138178;-57
2024/02/12 17:30:23;;;;;;;11.20;6.00;;;;;;;11.54;62.76;97776.73;232267;204;138138;-59
2024/02/12 17:35:32;;;;;;;12.80;5.80;;;;;;;11.50;62.86;97780.28;232260;203;151852;-59
2024/02/12 17:40:35;;;;;;;81.20;63.80;;;;;;;11.46;63.00;97788.44;232264;203;137342;-58
2024/02/12 17:45:39;;;;;;;17.10;8.70;;;;;;;11.50;63.50;97799.27;232411;203;139093;-59
2024/02/12 17:50:42;;;;;;;10.10;5.90;;;;;;;11.55;63.02;97807.69;232311;200;151444;-58
2024/02/12 17:55:45;;;;;;;14.20;6.90;;;;;;;11.59;62.87;97817.52;232178;201;138733;-59
2024/02/12 18:00:49;;;;;;;8.60;6.10;;;;;;;11.61;62.65;97831.35;232287;204;138887;-59
2024/02/12 18:05:52;;;;;;;16.40;6.30;;;;;;;11.63;62.65;97832.62;232173;204;152958;-58
2024/02/12 18:10:56;;;;;;;11.00;5.60;;;;;;;11.60;62.57;97834.33;232284;201;139060;-60
2024/02/12 18:16:00;;;;;;;9.20;5.40;;;;;;;11.55;62.48;97833.88;232351;200;137054;-58
2024/02/12 18:21:04;;;;;;;10.20;5.90;;;;;;;11.51;62.39;97839.36;232263;200;154529;-60
2024/02/12 18:26:08;;;;;;;7.90;5.10;;;;;;;11.49;62.38;97844.97;232279;203;138691;-60
2024/02/12 18:31:15;;;;;;;8.30;4.70;;;;;;;11.49;62.19;97853.69;232155;201;137946;-58
2024/02/12 18:36:22;;;;;;;8.50;4.80;;;;;;;11.45;61.87;97859.91;232300;203;152970;-59
2024/02/12 18:41:28;;;;;;;8.40;5.00;;;;;;;11.41;61.83;97866.14;232290;200;137722;-59
2024/02/12 18:46:32;;;;;;;10.40;4.80;;;;;;;11.41;61.92;97871.98;232328;203;137954;-59
2024/02/12 18:51:35;;;;;;;9.20;5.20;;;;;;;11.38;61.85;97875.48;232268;204;153203;-60
2024/02/12 18:56:38;;;;;;;10.10;5.20;;;;;;;11.35;62.08;97877.82;232323;204;140054;-59
2024/02/12 19:01:44;;;;;;;13.80;5.80;;;;;;;11.35;62.17;97878.33;232187;204;137991;-60
2024/02/12 19:06:47;;;;;;;15.90;8.10;;;;;;;11.36;62.94;97880.89;232246;204;151417;-59
2024/02/12 19:11:51;;;;;;;11.10;6.80;;;;;;;11.36;62.46;97891.40;232184;201;137064;-56
2024/02/12 19:16:55;;;;;;;12.90;6.90;;;;;;;11.32;62.46;97896.18;232172;203;137384;-60
2024/02/12 19:21:58;;;;;;;15.00;7.70;;;;;;;11.26;62.62;97902.17;232324;201;151523;-60
2024/02/12 19:27:01;;;;;;;16.40;7.60;;;;;;;11.24;62.76;97912.66;231156;200;138544;-60
2024/02/12 19:32:08;;;;;;;39.60;32.50;;;;;;;11.21;63.26;97917.70;232216;203;138012;-61
2024/02/12 19:37:12;;;;;;;14.60;10.00;;;;;;;11.18;63.56;97923.45;232307;204;152105;-60
2024/02/12 19:42:15;;;;;;;17.50;10.50;;;;;;;11.17;63.41;97934.02;232165;201;137901;-59
2024/02/12 19:47:18;;;;;;;18.00;10.70;;;;;;;11.12;63.52;97941.65;232177;200;137445;-60
2024/02/12 19:52:21;;;;;;;19.80;11.20;;;;;;;11.09;63.64;97945.11;232135;203;151609;-59
2024/02/12 19:57:27;;;;;;;19.50;11.90;;;;;;;11.07;63.86;97948.15;232279;203;137458;-59
2024/02/12 20:02:30;;;;;;;19.30;12.90;;;;;;;11.05;63.83;97953.23;232246;196;139074;-58
2024/02/12 20:07:38;;;;;;;18.20;12.30;;;;;;;11.08;64.02;97961.34;232256;204;153008;-60
2024/02/12 20:12:42;;;;;;;22.90;13.10;;;;;;;11.08;64.00;97967.06;232233;204;138336;-60
2024/02/12 20:17:46;;;;;;;20.80;12.90;;;;;;;11.04;63.94;97975.85;232286;204;137876;-60
2024/02/12 20:22:49;;;;;;;22.10;13.40;;;;;;;11.01;64.13;97982.89;232278;199;151784;-59
2024/02/12 20:27:53;;;;;;;19.40;12.40;;;;;;;10.97;64.17;97988.91;232375;197;138987;-60
2024/02/12 20:32:59;;;;;;;78.90;59.80;;;;;;;10.90;64.52;97996.67;232221;204;138036;-58
2024/02/12 20:38:03;;;;;;;22.20;14.60;;;;;;;10.95;64.78;98003.08;232245;204;151427;-60
2024/02/12 20:43:07;;;;;;;22.30;14.80;;;;;;;10.97;64.41;97999.91;232303;201;138958;-60
2024/02/12 20:48:12;;;;;;;25.80;15.60;;;;;;;10.93;64.35;98009.42;232341;203;137433;-59
2024/02/12 20:53:16;;;;;;;24.40;15.10;;;;;;;10.87;64.46;98010.57;232290;203;152549;-60
2024/02/12 20:58:19;;;;;;;25.30;15.50;;;;;;;10.82;64.63;98012.05;232305;196;137903;-60
2024/02/12 21:03:22;;;;;;;190.20;144.30;;;;;;;10.88;65.62;98016.23;232433;201;137471;-60
2024/02/12 21:08:26;;;;;;;28.40;18.30;;;;;;;10.98;65.38;98020.21;232095;203;153215;-61
2024/02/12 21:13:31;;;;;;;26.60;17.20;;;;;;;10.92;64.80;98027.83;232239;204;138141;-60
2024/02/12 21:18:34;;;;;;;26.30;17.10;;;;;;;10.84;64.86;98030.22;232346;200;137616;-61
2024/02/12 21:23:37;;;;;;;31.10;19.50;;;;;;;10.71;65.03;98034.23;232337;203;150363;-60
2024/02/12 21:28:41;;;;;;;30.00;20.10;;;;;;;10.70;65.20;98045.90;232336;203;137220;-59
2024/02/12 21:33:44;;;;;;;91.80;70.30;;;;;;;10.63;65.28;98048.17;232420;204;138269;-60
2024/02/12 21:38:47;;;;;;;36.60;23.60;;;;;;;10.59;66.11;98054.53;232326;197;151490;-60
2024/02/12 21:43:50;;;;;;;35.90;23.30;;;;;;;10.51;65.68;98066.35;232281;197;138833;-61
2024/02/12 21:48:54;;;;;;;36.40;23.30;;;;;;;10.36;65.77;98068.37;232339;204;137434;-60
2024/02/12 21:53:57;;;;;;;36.10;22.60;;;;;;;10.26;66.15;98078.85;232378;200;151237;-59
2024/02/12 21:59:01;;;;;;;36.90;24.80;;;;;;;10.28;66.20;98090.77;232188;198;138336;-61
2024/02/12 22:04:05;;;;;;;44.10;27.20;;;;;;;10.24;66.47;98090.92;232497;204;138368;-62
2024/02/12 22:09:08;;;;;;;44.50;27.00;;;;;;;10.21;66.53;98096.55;232285;203;151651;-61
2024/02/12 22:14:14;;;;;;;43.40;26.90;;;;;;;10.18;66.58;98097.64;232317;196;137862;-60
2024/02/12 22:19:17;;;;;;;41.40;26.10;;;;;;;10.13;66.70;98104.62;232436;203;137710;-61
2024/02/12 22:24:20;;;;;;;45.60;26.90;;;;;;;10.10;66.82;98116.23;232230;204;151916;-61
2024/02/12 22:29:23;;;;;;;44.30;27.10;;;;;;;10.02;66.88;98130.48;231843;203;141133;-61
2024/02/12 22:34:27;;;;;;;46.00;28.40;;;;;;;9.88;67.06;98135.58;232313;203;137610;-61
2024/02/12 22:39:30;;;;;;;46.50;28.80;;;;;;;9.79;67.39;98142.45;232394;204;151488;-60
2024/02/12 22:44:34;;;;;;;46.90;28.80;;;;;;;9.74;67.58;98140.13;232297;200;137045;-62
2024/02/12 22:49:39;;;;;;;46.20;30.10;;;;;;;9.67;67.67;98144.02;232336;204;137709;-62
2024/02/12 22:54:42;;;;;;;48.40;30.30;;;;;;;9.62;67.84;98147.91;232357;203;150996;-61
2024/02/12 22:59:45;;;;;;;49.20;29.90;;;;;;;9.59;68.00;98161.20;232371;203;137547;-61
2024/02/12 23:04:52;;;;;;;40.80;26.30;;;;;;;9.57;67.94;98169.86;232366;202;137835;-62
2024/02/12 23:09:55;;;;;;;43.60;26.70;;;;;;;9.50;67.96;98174.61;232238;204;151353;-60
2024/02/12 23:14:59;;;;;;;36.20;24.40;;;;;;;9.50;68.01;98182.27;232262;197;138224;-60
2024/02/12 23:20:06;;;;;;;40.40;24.70;;;;;;;9.55;67.81;98185.23;232355;204;138670;-60
2024/02/12 23:25:09;;;;;;;38.50;23.50;;;;;;;9.61;67.54;98188.55;231709;198;151299;-59
2024/02/12 23:30:13;;;;;;;39.20;23.40;;;;;;;9.61;67.28;98194.57;232150;201;137257;-59
2024/02/12 23:35:17;;;;;;;37.60;21.80;;;;;;;9.63;67.19;98196.34;232060;197;138798;-60
2024/02/12 23:40:20;;;;;;;36.50;21.90;;;;;;;9.62;67.06;98202.09;232182;204;152800;-60
2024/02/12 23:45:23;;;;;;;32.60;21.10;;;;;;;9.55;66.81;98208.06;232342;197;141662;-61